sensor_id;sensor_type;location;lat;lon;timestamp;temperature;humidity
2729;DHT22;1372;47.956;7.830;2022-09-01T00:01:47;15.70;99.90
2729;DHT22;1372;47.956;7.830;2022-09-01T00:04:19;15.70;99.90
2729;DHT22;1372;47.956;7.830;2022-09-01T00:06:54;15.60;99.90
2729;DHT22;1372;47.956;7.830;2022-09-01T00:09:23;15.60;99.90
2729;DHT22;1372;47.956;7.830;2022-09-01T00:11:54;15.70;99.90
2729;DHT22;1372;47.956;7.830;2022-09-01T00:14:26;15.60;99.90
2729;DHT22;1372;47.956;7.830;2022-09-01T00:16:58;15.60;99.90
2729;DHT22;1372;47.956;7.830;2022-09-01T00:19:28;15.70;99.90
2729;DHT22;1372;47.956;7.830;2022-09-01T00:21:57;15.70;99.90
2729;DHT22;1372;47.956;7.830;2022-09-01T00:24:46;15.70;99.90
2729;DHT22;1372;47.956;7.830;2022-09-01T00:27:16;15.70;99.90
2729;DHT22;1372;47.956;7.830;2022-09-01T00:29:45;15.60;99.90
2729;DHT22;1372;47.956;7.830;2022-09-01T00:32:14;15.70;99.90
2729;DHT22;1372;47.956;7.830;2022-09-01T00:34:43;15.70;99.90
2729;DHT22;1372;47.956;7.830;2022-09-01T00:37:31;15.60;99.90
2729;DHT22;1372;47.956;7.830;2022-09-01T00:40:00;15.60;99.90
2729;DHT22;1372;47.956;7.830;2022-09-01T00:42:30;15.60;99.90
2729;DHT22;1372;47.956;7.830;2022-09-01T00:44:59;15.50;99.90
2729;DHT22;1372;47.956;7.830;2022-09-01T00:47:27;15.60;99.90
2729;DHT22;1372;47.956;7.830;2022-09-01T00:49:58;15.50;99.90
2729;DHT22;1372;47.956;7.830;2022-09-01T00:52:31;15.50;99.90
2729;DHT22;1372;47.956;7.830;2022-09-01T00:55:07;15.60;99.90
2729;DHT22;1372;47.956;7.830;2022-09-01T00:57:40;15.50;99.90
2729;DHT22;1372;47.956;7.830;2022-09-01T01:00:13;15.40;99.90
2729;DHT22;1372;47.956;7.830;2022-09-01T01:02:46;15.50;99.90
2729;DHT22;1372;47.956;7.830;2022-09-01T01:05:19;15.50;99.90
2729;DHT22;1372;47.956;7.830;2022-09-01T01:07:49;15.50;99.90
2729;DHT22;1372;47.956;7.830;2022-09-01T01:10:20;15.30;99.90
2729;DHT22;1372;47.956;7.830;2022-09-01T01:12:51;15.30;99.90
2729;DHT22;1372;47.956;7.830;2022-09-01T01:15:40;15.20;99.90
2729;DHT22;1372;47.956;7.830;2022-09-01T01:18:10;15.30;99.90
2729;DHT22;1372;47.956;7.830;2022-09-01T01:21:03;15.30;99.90
2729;DHT22;1372;47.956;7.830;2022-09-01T01:23:56;15.30;99.90
2729;DHT22;1372;47.956;7.830;2022-09-01T01:26:29;15.20;99.90
2729;DHT22;1372;47.956;7.830;2022-09-01T01:28:58;15.10;99.90
2729;DHT22;1372;47.956;7.830;2022-09-01T01:31:29;15.10;99.90
2729;DHT22;1372;47.956;7.830;2022-09-01T01:33:58;15.20;99.90
2729;DHT22;1372;47.956;7.830;2022-09-01T01:36:29;15.20;99.90
2729;DHT22;1372;47.956;7.830;2022-09-01T01:39:06;15.20;99.90
2729;DHT22;1372;47.956;7.830;2022-09-01T01:41:40;15.20;99.90
2729;DHT22;1372;47.956;7.830;2022-09-01T01:44:12;15.20;99.90
2729;DHT22;1372;47.956;7.830;2022-09-01T01:46:46;15.10;99.90
2729;DHT22;1372;47.956;7.830;2022-09-01T01:49:21;15.00;99.90
2729;DHT22;1372;47.956;7.830;2022-09-01T01:51:53;15.00;99.90
2729;DHT22;1372;47.956;7.830;2022-09-01T01:54:23;15.20;99.90
2729;DHT22;1372;47.956;7.830;2022-09-01T01:56:53;15.20;99.90
2729;DHT22;1372;47.956;7.830;2022-09-01T01:59:26;15.10;99.90
2729;DHT22;1372;47.956;7.830;2022-09-01T02:01:56;15.00;99.90
2729;DHT22;1372;47.956;7.830;2022-09-01T02:04:44;15.00;99.90
2729;DHT22;1372;47.956;7.830;2022-09-01T02:07:13;15.00;99.90
2729;DHT22;1372;47.956;7.830;2022-09-01T02:09:42;15.00;99.90
2729;DHT22;1372;47.956;7.830;2022-09-01T02:12:15;15.10;99.90
2729;DHT22;1372;47.956;7.830;2022-09-01T02:14:45;15.10;99.90
2729;DHT22;1372;47.956;7.830;2022-09-01T02:17:15;15.00;99.90
2729;DHT22;1372;47.956;7.830;2022-09-01T02:19:44;15.00;99.90
2729;DHT22;1372;47.956;7.830;2022-09-01T02:22:13;15.10;99.90
2729;DHT22;1372;47.956;7.830;2022-09-01T02:24:42;15.10;99.90
2729;DHT22;1372;47.956;7.830;2022-09-01T02:27:16;15.00;99.90
2729;DHT22;1372;47.956;7.830;2022-09-01T02:29:50;14.90;99.90
2729;DHT22;1372;47.956;7.830;2022-09-01T02:32:22;15.00;99.90
2729;DHT22;1372;47.956;7.830;2022-09-01T02:35:10;15.00;99.90
2729;DHT22;1372;47.956;7.830;2022-09-01T02:37:39;14.90;99.90
2729;DHT22;1372;47.956;7.830;2022-09-01T02:40:29;15.00;99.90
2729;DHT22;1372;47.956;7.830;2022-09-01T02:43:00;14.90;99.90
2729;DHT22;1372;47.956;7.830;2022-09-01T02:45:28;14.90;99.90
2729;DHT22;1372;47.956;7.830;2022-09-01T02:48:00;14.80;99.90
2729;DHT22;1372;47.956;7.830;2022-09-01T02:50:31;14.80;99.90
2729;DHT22;1372;47.956;7.830;2022-09-01T02:53:00;14.80;99.90
2729;DHT22;1372;47.956;7.830;2022-09-01T02:55:30;14.90;99.90
2729;DHT22;1372;47.956;7.830;2022-09-01T02:58:00;14.80;99.90
2729;DHT22;1372;47.956;7.830;2022-09-01T03:00:51;14.80;99.90
2729;DHT22;1372;47.956;7.830;2022-09-01T03:03:21;14.80;99.90
2729;DHT22;1372;47.956;7.830;2022-09-01T03:05:51;14.70;99.90
2729;DHT22;1372;47.956;7.830;2022-09-01T03:08:24;14.80;99.90
2729;DHT22;1372;47.956;7.830;2022-09-01T03:10:54;14.70;99.90
2729;DHT22;1372;47.956;7.830;2022-09-01T03:13:28;14.70;99.90
2729;DHT22;1372;47.956;7.830;2022-09-01T03:16:15;14.70;99.90
2729;DHT22;1372;47.956;7.830;2022-09-01T03:18:45;14.70;99.90
2729;DHT22;1372;47.956;7.830;2022-09-01T03:21:14;14.70;99.90
2729;DHT22;1372;47.956;7.830;2022-09-01T03:24:03;14.70;99.90
2729;DHT22;1372;47.956;7.830;2022-09-01T03:26:32;14.70;99.90
2729;DHT22;1372;47.956;7.830;2022-09-01T03:29:03;14.60;99.90
2729;DHT22;1372;47.956;7.830;2022-09-01T03:31:32;14.60;99.90
2729;DHT22;1372;47.956;7.830;2022-09-01T03:34:20;14.60;99.90
2729;DHT22;1372;47.956;7.830;2022-09-01T03:36:56;14.50;99.90
2729;DHT22;1372;47.956;7.830;2022-09-01T03:39:25;14.60;99.90
2729;DHT22;1372;47.956;7.830;2022-09-01T03:41:54;14.50;99.90
2729;DHT22;1372;47.956;7.830;2022-09-01T03:44:26;14.60;99.90
2729;DHT22;1372;47.956;7.830;2022-09-01T03:46:54;14.40;99.90
2729;DHT22;1372;47.956;7.830;2022-09-01T03:49:24;14.50;99.90
2729;DHT22;1372;47.956;7.830;2022-09-01T03:51:53;14.60;99.90
2729;DHT22;1372;47.956;7.830;2022-09-01T03:54:24;14.50;99.90
2729;DHT22;1372;47.956;7.830;2022-09-01T03:56:56;14.40;99.90
2729;DHT22;1372;47.956;7.830;2022-09-01T03:59:28;14.40;99.90
2729;DHT22;1372;47.956;7.830;2022-09-01T04:01:57;14.40;99.90
2729;DHT22;1372;47.956;7.830;2022-09-01T04:04:26;14.40;99.90
2729;DHT22;1372;47.956;7.830;2022-09-01T04:06:58;14.30;99.90
2729;DHT22;1372;47.956;7.830;2022-09-01T04:09:27;14.30;99.90
2729;DHT22;1372;47.956;7.830;2022-09-01T04:11:56;14.30;99.90
2729;DHT22;1372;47.956;7.830;2022-09-01T04:14:25;14.20;99.90
2729;DHT22;1372;47.956;7.830;2022-09-01T04:16:56;14.20;99.90
2729;DHT22;1372;47.956;7.830;2022-09-01T04:20:05;14.30;99.90
2729;DHT22;1372;47.956;7.830;2022-09-01T04:22:35;14.30;99.90
2729;DHT22;1372;47.956;7.830;2022-09-01T04:25:05;14.40;99.90
2729;DHT22;1372;47.956;7.830;2022-09-01T04:27:54;14.30;99.90
2729;DHT22;1372;47.956;7.830;2022-09-01T04:30:24;14.20;99.90
2729;DHT22;1372;47.956;7.830;2022-09-01T04:32:59;14.20;99.90
2729;DHT22;1372;47.956;7.830;2022-09-01T04:35:48;14.10;99.90
2729;DHT22;1372;47.956;7.830;2022-09-01T04:38:16;14.10;99.90
2729;DHT22;1372;47.956;7.830;2022-09-01T04:40:49;14.10;99.90
2729;DHT22;1372;47.956;7.830;2022-09-01T04:43:18;14.20;99.90
2729;DHT22;1372;47.956;7.830;2022-09-01T04:45:47;14.20;99.90
2729;DHT22;1372;47.956;7.830;2022-09-01T04:48:23;14.20;99.90
2729;DHT22;1372;47.956;7.830;2022-09-01T04:50:52;14.10;99.90
2729;DHT22;1372;47.956;7.830;2022-09-01T04:53:22;14.20;99.90
2729;DHT22;1372;47.956;7.830;2022-09-01T04:55:53;14.20;99.90
2729;DHT22;1372;47.956;7.830;2022-09-01T04:58:22;14.20;99.90
2729;DHT22;1372;47.956;7.830;2022-09-01T05:01:13;14.10;99.90
2729;DHT22;1372;47.956;7.830;2022-09-01T05:03:48;14.20;99.90
2729;DHT22;1372;47.956;7.830;2022-09-01T05:06:25;14.20;99.90
2729;DHT22;1372;47.956;7.830;2022-09-01T05:08:55;14.20;99.90
2729;DHT22;1372;47.956;7.830;2022-09-01T05:11:45;14.10;99.90
2729;DHT22;1372;47.956;7.830;2022-09-01T05:14:14;14.10;99.90
2729;DHT22;1372;47.956;7.830;2022-09-01T05:17:04;14.10;99.90
2729;DHT22;1372;47.956;7.830;2022-09-01T05:19:39;14.10;99.90
2729;DHT22;1372;47.956;7.830;2022-09-01T05:22:29;14.20;99.90
2729;DHT22;1372;47.956;7.830;2022-09-01T05:24:57;14.20;99.90
2729;DHT22;1372;47.956;7.830;2022-09-01T05:27:29;14.20;99.90
2729;DHT22;1372;47.956;7.830;2022-09-01T05:30:01;14.20;99.90
2729;DHT22;1372;47.956;7.830;2022-09-01T05:32:35;14.30;99.90
2729;DHT22;1372;47.956;7.830;2022-09-01T05:35:07;14.30;99.90
2729;DHT22;1372;47.956;7.830;2022-09-01T05:37:36;14.30;99.90
2729;DHT22;1372;47.956;7.830;2022-09-01T05:40:08;14.30;99.90
2729;DHT22;1372;47.956;7.830;2022-09-01T05:42:43;14.20;99.90
2729;DHT22;1372;47.956;7.830;2022-09-01T05:45:12;14.30;99.90
2729;DHT22;1372;47.956;7.830;2022-09-01T05:47:46;14.30;99.90
2729;DHT22;1372;47.956;7.830;2022-09-01T05:50:17;14.30;99.90
2729;DHT22;1372;47.956;7.830;2022-09-01T05:52:46;14.40;99.90
2729;DHT22;1372;47.956;7.830;2022-09-01T05:55:17;14.50;99.90
2729;DHT22;1372;47.956;7.830;2022-09-01T05:57:45;14.40;99.90
2729;DHT22;1372;47.956;7.830;2022-09-01T06:00:15;14.30;99.90
2729;DHT22;1372;47.956;7.830;2022-09-01T06:02:44;14.30;99.90
2729;DHT22;1372;47.956;7.830;2022-09-01T06:05:13;14.40;99.90
2729;DHT22;1372;47.956;7.830;2022-09-01T06:07:43;14.50;99.90
2729;DHT22;1372;47.956;7.830;2022-09-01T06:10:13;14.60;99.90
2729;DHT22;1372;47.956;7.830;2022-09-01T06:12:42;14.70;99.90
2729;DHT22;1372;47.956;7.830;2022-09-01T06:15:31;14.70;99.90
2729;DHT22;1372;47.956;7.830;2022-09-01T06:18:00;14.70;99.90
2729;DHT22;1372;47.956;7.830;2022-09-01T06:20:29;14.80;99.90
2729;DHT22;1372;47.956;7.830;2022-09-01T06:22:59;14.90;99.90
2729;DHT22;1372;47.956;7.830;2022-09-01T06:25:48;15.00;99.90
2729;DHT22;1372;47.956;7.830;2022-09-01T06:28:17;15.10;99.90
2729;DHT22;1372;47.956;7.830;2022-09-01T06:30:49;15.20;99.90
2729;DHT22;1372;47.956;7.830;2022-09-01T06:33:18;15.30;99.90
2729;DHT22;1372;47.956;7.830;2022-09-01T06:35:49;15.40;99.90
2729;DHT22;1372;47.956;7.830;2022-09-01T06:38:20;15.40;99.90
2729;DHT22;1372;47.956;7.830;2022-09-01T06:40:59;15.50;99.90
2729;DHT22;1372;47.956;7.830;2022-09-01T06:43:30;15.60;99.90
2729;DHT22;1372;47.956;7.830;2022-09-01T06:46:00;15.70;99.90
2729;DHT22;1372;47.956;7.830;2022-09-01T06:48:29;15.70;99.90
2729;DHT22;1372;47.956;7.830;2022-09-01T06:51:00;15.70;99.90
2729;DHT22;1372;47.956;7.830;2022-09-01T06:54:08;15.80;99.90
2729;DHT22;1372;47.956;7.830;2022-09-01T06:57:00;15.80;99.90
2729;DHT22;1372;47.956;7.830;2022-09-01T06:59:50;15.90;99.90
2729;DHT22;1372;47.956;7.830;2022-09-01T07:02:20;15.90;99.90
2729;DHT22;1372;47.956;7.830;2022-09-01T07:04:53;16.00;99.90
2729;DHT22;1372;47.956;7.830;2022-09-01T07:07:25;16.00;99.90
2729;DHT22;1372;47.956;7.830;2022-09-01T07:10:23;16.10;99.90
2729;DHT22;1372;47.956;7.830;2022-09-01T07:12:55;16.10;99.90
2729;DHT22;1372;47.956;7.830;2022-09-01T07:15:37;16.20;99.90
2729;DHT22;1372;47.956;7.830;2022-09-01T07:18:28;16.20;99.90
2729;DHT22;1372;47.956;7.830;2022-09-01T07:20:58;16.30;99.90
2729;DHT22;1372;47.956;7.830;2022-09-01T07:23:34;16.40;99.90
2729;DHT22;1372;47.956;7.830;2022-09-01T07:26:15;16.40;99.90
2729;DHT22;1372;47.956;7.830;2022-09-01T07:28:53;16.60;99.90
2729;DHT22;1372;47.956;7.830;2022-09-01T07:31:32;16.60;99.90
2729;DHT22;1372;47.956;7.830;2022-09-01T07:34:23;16.60;99.90
2729;DHT22;1372;47.956;7.830;2022-09-01T07:37:08;16.70;99.90
2729;DHT22;1372;47.956;7.830;2022-09-01T07:39:57;16.80;99.90
2729;DHT22;1372;47.956;7.830;2022-09-01T07:42:52;16.80;99.90
2729;DHT22;1372;47.956;7.830;2022-09-01T07:45:43;16.90;99.90
2729;DHT22;1372;47.956;7.830;2022-09-01T07:48:18;16.90;99.90
2729;DHT22;1372;47.956;7.830;2022-09-01T07:51:11;17.00;99.90
2729;DHT22;1372;47.956;7.830;2022-09-01T07:54:00;17.00;99.90
2729;DHT22;1372;47.956;7.830;2022-09-01T07:56:29;17.00;99.90
2729;DHT22;1372;47.956;7.830;2022-09-01T07:59:03;17.20;99.90
2729;DHT22;1372;47.956;7.830;2022-09-01T08:01:33;17.40;99.90
2729;DHT22;1372;47.956;7.830;2022-09-01T08:04:02;17.60;99.90
2729;DHT22;1372;47.956;7.830;2022-09-01T08:06:33;17.50;99.90
2729;DHT22;1372;47.956;7.830;2022-09-01T08:09:05;17.50;99.90
2729;DHT22;1372;47.956;7.830;2022-09-01T08:11:38;17.50;99.90
2729;DHT22;1372;47.956;7.830;2022-09-01T08:14:28;17.40;99.90
2729;DHT22;1372;47.956;7.830;2022-09-01T08:17:01;17.60;99.90
2729;DHT22;1372;47.956;7.830;2022-09-01T08:19:50;17.70;99.90
2729;DHT22;1372;47.956;7.830;2022-09-01T08:22:19;17.70;99.90
2729;DHT22;1372;47.956;7.830;2022-09-01T08:24:50;17.60;99.90
2729;DHT22;1372;47.956;7.830;2022-09-01T08:27:20;17.70;99.90
2729;DHT22;1372;47.956;7.830;2022-09-01T08:29:50;17.80;99.90
2729;DHT22;1372;47.956;7.830;2022-09-01T08:32:19;17.90;99.90
2729;DHT22;1372;47.956;7.830;2022-09-01T08:34:48;17.90;99.90
2729;DHT22;1372;47.956;7.830;2022-09-01T08:37:17;17.90;99.90
2729;DHT22;1372;47.956;7.830;2022-09-01T08:39:46;17.90;99.90
2729;DHT22;1372;47.956;7.830;2022-09-01T08:42:21;17.80;99.90
2729;DHT22;1372;47.956;7.830;2022-09-01T08:45:24;17.80;99.90
2729;DHT22;1372;47.956;7.830;2022-09-01T08:47:59;17.80;99.90
2729;DHT22;1372;47.956;7.830;2022-09-01T08:50:59;17.80;99.90
2729;DHT22;1372;47.956;7.830;2022-09-01T08:54:05;18.00;99.90
2729;DHT22;1372;47.956;7.830;2022-09-01T08:56:37;18.20;99.90
2729;DHT22;1372;47.956;7.830;2022-09-01T08:59:10;18.40;99.90
2729;DHT22;1372;47.956;7.830;2022-09-01T09:01:48;18.40;99.90
2729;DHT22;1372;47.956;7.830;2022-09-01T09:04:33;18.50;99.90
2729;DHT22;1372;47.956;7.830;2022-09-01T09:07:20;18.60;99.90
2729;DHT22;1372;47.956;7.830;2022-09-01T09:10:02;18.60;99.90
2729;DHT22;1372;47.956;7.830;2022-09-01T09:12:47;18.60;99.90
2729;DHT22;1372;47.956;7.830;2022-09-01T09:15:43;18.60;99.90
2729;DHT22;1372;47.956;7.830;2022-09-01T09:18:41;18.70;99.90
2729;DHT22;1372;47.956;7.830;2022-09-01T09:21:32;18.80;99.90
2729;DHT22;1372;47.956;7.830;2022-09-01T09:24:09;18.80;99.90
2729;DHT22;1372;47.956;7.830;2022-09-01T09:26:47;18.90;99.90
2729;DHT22;1372;47.956;7.830;2022-09-01T09:29:17;18.90;99.90
2729;DHT22;1372;47.956;7.830;2022-09-01T09:31:48;18.80;99.90
2729;DHT22;1372;47.956;7.830;2022-09-01T09:34:33;18.90;99.90
2729;DHT22;1372;47.956;7.830;2022-09-01T09:37:23;18.90;99.90
2729;DHT22;1372;47.956;7.830;2022-09-01T09:40:09;19.00;99.90
2729;DHT22;1372;47.956;7.830;2022-09-01T09:45:33;19.00;99.90
2729;DHT22;1372;47.956;7.830;2022-09-01T09:48:08;19.10;99.90
2729;DHT22;1372;47.956;7.830;2022-09-01T09:50:40;19.10;99.90
2729;DHT22;1372;47.956;7.830;2022-09-01T09:53:30;19.10;99.90
2729;DHT22;1372;47.956;7.830;2022-09-01T09:56:02;19.10;99.90
2729;DHT22;1372;47.956;7.830;2022-09-01T09:58:37;19.10;99.90
2729;DHT22;1372;47.956;7.830;2022-09-01T10:01:12;19.10;99.90
2729;DHT22;1372;47.956;7.830;2022-09-01T10:03:48;19.20;99.90
2729;DHT22;1372;47.956;7.830;2022-09-01T10:06:32;19.30;99.90
2729;DHT22;1372;47.956;7.830;2022-09-01T10:09:04;19.30;99.90
2729;DHT22;1372;47.956;7.830;2022-09-01T10:11:55;19.40;99.90
2729;DHT22;1372;47.956;7.830;2022-09-01T10:14:48;19.50;99.90
2729;DHT22;1372;47.956;7.830;2022-09-01T10:17:23;19.60;99.90
2729;DHT22;1372;47.956;7.830;2022-09-01T10:19:59;19.60;99.90
2729;DHT22;1372;47.956;7.830;2022-09-01T10:22:37;19.70;99.90
2729;DHT22;1372;47.956;7.830;2022-09-01T10:25:13;19.80;99.90
2729;DHT22;1372;47.956;7.830;2022-09-01T10:27:47;19.80;99.90
2729;DHT22;1372;47.956;7.830;2022-09-01T10:30:23;19.80;99.90
2729;DHT22;1372;47.956;7.830;2022-09-01T10:32:54;19.90;99.90
2729;DHT22;1372;47.956;7.830;2022-09-01T10:35:38;19.90;99.90
2729;DHT22;1372;47.956;7.830;2022-09-01T10:38:15;19.90;99.90
2729;DHT22;1372;47.956;7.830;2022-09-01T10:40:47;20.00;99.90
2729;DHT22;1372;47.956;7.830;2022-09-01T10:43:39;20.00;99.90
2729;DHT22;1372;47.956;7.830;2022-09-01T10:46:28;20.10;99.90
2729;DHT22;1372;47.956;7.830;2022-09-01T10:52:57;20.30;99.90
2729;DHT22;1372;47.956;7.830;2022-09-01T10:55:43;20.40;99.90
2729;DHT22;1372;47.956;7.830;2022-09-01T10:58:34;20.40;99.90
2729;DHT22;1372;47.956;7.830;2022-09-01T11:02:04;20.40;99.90
2729;DHT22;1372;47.956;7.830;2022-09-01T11:05:13;20.40;99.90
2729;DHT22;1372;47.956;7.830;2022-09-01T11:08:21;20.60;99.90
2729;DHT22;1372;47.956;7.830;2022-09-01T11:10:55;20.70;99.90
2729;DHT22;1372;47.956;7.830;2022-09-01T11:13:35;20.70;99.90
2729;DHT22;1372;47.956;7.830;2022-09-01T11:16:25;20.80;99.90
2729;DHT22;1372;47.956;7.830;2022-09-01T11:19:36;20.80;99.90
2729;DHT22;1372;47.956;7.830;2022-09-01T11:22:24;21.00;99.90
2729;DHT22;1372;47.956;7.830;2022-09-01T11:25:32;21.00;99.90
2729;DHT22;1372;47.956;7.830;2022-09-01T11:28:45;21.20;99.90
2729;DHT22;1372;47.956;7.830;2022-09-01T11:31:30;21.30;99.90
2729;DHT22;1372;47.956;7.830;2022-09-01T11:34:18;21.40;99.90
2729;DHT22;1372;47.956;7.830;2022-09-01T11:37:11;21.50;99.90
2729;DHT22;1372;47.956;7.830;2022-09-01T11:39:44;21.50;99.90
2729;DHT22;1372;47.956;7.830;2022-09-01T11:42:19;21.50;99.90
2729;DHT22;1372;47.956;7.830;2022-09-01T11:44:55;21.50;99.90
2729;DHT22;1372;47.956;7.830;2022-09-01T11:47:31;21.50;99.90
2729;DHT22;1372;47.956;7.830;2022-09-01T11:50:05;21.50;99.90
2729;DHT22;1372;47.956;7.830;2022-09-01T11:52:37;21.40;99.90
2729;DHT22;1372;47.956;7.830;2022-09-01T11:55:10;21.40;99.90
2729;DHT22;1372;47.956;7.830;2022-09-01T11:57:39;21.30;99.90
2729;DHT22;1372;47.956;7.830;2022-09-01T12:00:12;21.30;99.90
2729;DHT22;1372;47.956;7.830;2022-09-01T12:02:47;21.30;99.90
2729;DHT22;1372;47.956;7.830;2022-09-01T12:05:27;21.30;99.90
2729;DHT22;1372;47.956;7.830;2022-09-01T12:07:59;21.40;99.90
2729;DHT22;1372;47.956;7.830;2022-09-01T12:10:33;21.50;99.90
2729;DHT22;1372;47.956;7.830;2022-09-01T12:13:06;21.70;99.90
2729;DHT22;1372;47.956;7.830;2022-09-01T12:15:38;21.90;99.90
2729;DHT22;1372;47.956;7.830;2022-09-01T12:18:29;22.00;99.90
2729;DHT22;1372;47.956;7.830;2022-09-01T12:21:03;22.00;99.90
2729;DHT22;1372;47.956;7.830;2022-09-01T12:23:36;22.10;99.90
2729;DHT22;1372;47.956;7.830;2022-09-01T12:26:29;22.20;99.90
2729;DHT22;1372;47.956;7.830;2022-09-01T12:28:58;22.30;99.90
2729;DHT22;1372;47.956;7.830;2022-09-01T12:31:49;22.50;99.90
2729;DHT22;1372;47.956;7.830;2022-09-01T12:34:35;22.60;99.90
2729;DHT22;1372;47.956;7.830;2022-09-01T12:37:11;22.70;99.90
2729;DHT22;1372;47.956;7.830;2022-09-01T12:39:49;22.90;99.90
2729;DHT22;1372;47.956;7.830;2022-09-01T12:42:26;23.10;99.90
2729;DHT22;1372;47.956;7.830;2022-09-01T12:45:39;23.00;99.90
2729;DHT22;1372;47.956;7.830;2022-09-01T12:48:32;22.90;99.90
2729;DHT22;1372;47.956;7.830;2022-09-01T12:51:05;22.80;99.90
2729;DHT22;1372;47.956;7.830;2022-09-01T12:53:50;22.90;99.90
2729;DHT22;1372;47.956;7.830;2022-09-01T12:56:45;23.20;99.90
2729;DHT22;1372;47.956;7.830;2022-09-01T12:59:21;23.20;99.90
2729;DHT22;1372;47.956;7.830;2022-09-01T13:02:24;23.10;99.90
2729;DHT22;1372;47.956;7.830;2022-09-01T13:05:22;22.90;99.90
2729;DHT22;1372;47.956;7.830;2022-09-01T13:08:00;22.60;99.90
2729;DHT22;1372;47.956;7.830;2022-09-01T13:10:37;22.50;99.90
2729;DHT22;1372;47.956;7.830;2022-09-01T13:13:11;22.40;99.90
2729;DHT22;1372;47.956;7.830;2022-09-01T13:15:43;22.30;99.90
2729;DHT22;1372;47.956;7.830;2022-09-01T13:18:15;22.40;99.90
2729;DHT22;1372;47.956;7.830;2022-09-01T13:20:47;22.50;99.90
2729;DHT22;1372;47.956;7.830;2022-09-01T13:23:18;22.80;99.90
2729;DHT22;1372;47.956;7.830;2022-09-01T13:25:50;23.00;99.90
2729;DHT22;1372;47.956;7.830;2022-09-01T13:28:45;23.30;99.90
2729;DHT22;1372;47.956;7.830;2022-09-01T13:31:17;23.60;99.90
2729;DHT22;1372;47.956;7.830;2022-09-01T13:34:02;23.70;99.90
2729;DHT22;1372;47.956;7.830;2022-09-01T13:36:50;23.80;99.90
2729;DHT22;1372;47.956;7.830;2022-09-01T13:39:19;24.00;99.90
2729;DHT22;1372;47.956;7.830;2022-09-01T13:41:49;24.10;99.90
2729;DHT22;1372;47.956;7.830;2022-09-01T13:44:18;24.20;99.90
2729;DHT22;1372;47.956;7.830;2022-09-01T13:46:47;24.20;99.90
2729;DHT22;1372;47.956;7.830;2022-09-01T13:49:36;24.20;99.90
2729;DHT22;1372;47.956;7.830;2022-09-01T13:52:14;24.00;99.90
2729;DHT22;1372;47.956;7.830;2022-09-01T13:54:43;23.70;99.90
2729;DHT22;1372;47.956;7.830;2022-09-01T13:57:13;23.60;99.90
2729;DHT22;1372;47.956;7.830;2022-09-01T13:59:45;23.40;99.90
2729;DHT22;1372;47.956;7.830;2022-09-01T14:02:14;23.30;99.90
2729;DHT22;1372;47.956;7.830;2022-09-01T14:04:42;23.10;99.90
2729;DHT22;1372;47.956;7.830;2022-09-01T14:07:11;23.00;99.90
2729;DHT22;1372;47.956;7.830;2022-09-01T14:09:44;22.90;99.90
2729;DHT22;1372;47.956;7.830;2022-09-01T14:12:16;22.80;99.90
2729;DHT22;1372;47.956;7.830;2022-09-01T14:14:46;22.70;99.90
2729;DHT22;1372;47.956;7.830;2022-09-01T14:17:36;22.70;99.90
2729;DHT22;1372;47.956;7.830;2022-09-01T14:20:07;23.00;99.90
2729;DHT22;1372;47.956;7.830;2022-09-01T14:22:58;23.30;99.90
2729;DHT22;1372;47.956;7.830;2022-09-01T14:25:29;23.60;99.90
2729;DHT22;1372;47.956;7.830;2022-09-01T14:27:59;23.90;99.90
2729;DHT22;1372;47.956;7.830;2022-09-01T14:30:31;24.20;99.90
2729;DHT22;1372;47.956;7.830;2022-09-01T14:33:01;24.20;99.90
2729;DHT22;1372;47.956;7.830;2022-09-01T14:35:30;24.30;99.90
2729;DHT22;1372;47.956;7.830;2022-09-01T14:38:01;24.40;99.90
2729;DHT22;1372;47.956;7.830;2022-09-01T14:40:33;24.60;99.90
2729;DHT22;1372;47.956;7.830;2022-09-01T14:43:06;24.60;99.90
2729;DHT22;1372;47.956;7.830;2022-09-01T14:45:40;24.60;99.90
2729;DHT22;1372;47.956;7.830;2022-09-01T14:48:10;24.30;99.90
2729;DHT22;1372;47.956;7.830;2022-09-01T14:50:43;23.90;99.90
2729;DHT22;1372;47.956;7.830;2022-09-01T14:53:13;23.60;99.90
2729;DHT22;1372;47.956;7.830;2022-09-01T14:55:43;23.40;99.90
2729;DHT22;1372;47.956;7.830;2022-09-01T14:58:12;23.20;99.90
2729;DHT22;1372;47.956;7.830;2022-09-01T15:00:42;23.50;99.90
2729;DHT22;1372;47.956;7.830;2022-09-01T15:03:11;24.00;99.90
2729;DHT22;1372;47.956;7.830;2022-09-01T15:05:40;24.50;99.90
2729;DHT22;1372;47.956;7.830;2022-09-01T15:08:09;24.70;99.90
2729;DHT22;1372;47.956;7.830;2022-09-01T15:10:45;25.00;99.90
2729;DHT22;1372;47.956;7.830;2022-09-01T15:13:13;25.10;99.90
2729;DHT22;1372;47.956;7.830;2022-09-01T15:15:43;25.20;99.90
2729;DHT22;1372;47.956;7.830;2022-09-01T15:18:12;25.20;99.90
2729;DHT22;1372;47.956;7.830;2022-09-01T15:20:41;25.30;99.90
2729;DHT22;1372;47.956;7.830;2022-09-01T15:23:15;25.30;99.90
2729;DHT22;1372;47.956;7.830;2022-09-01T15:25:47;25.40;99.90
2729;DHT22;1372;47.956;7.830;2022-09-01T15:28:16;25.50;99.90
2729;DHT22;1372;47.956;7.830;2022-09-01T15:30:45;25.50;99.90
2729;DHT22;1372;47.956;7.830;2022-09-01T15:33:14;25.50;99.90
2729;DHT22;1372;47.956;7.830;2022-09-01T15:35:45;25.60;99.90
2729;DHT22;1372;47.956;7.830;2022-09-01T15:38:14;25.60;99.90
2729;DHT22;1372;47.956;7.830;2022-09-01T15:40:47;25.70;99.90
2729;DHT22;1372;47.956;7.830;2022-09-01T15:43:41;25.60;99.90
2729;DHT22;1372;47.956;7.830;2022-09-01T15:46:11;25.50;99.90
2729;DHT22;1372;47.956;7.830;2022-09-01T15:48:41;25.40;99.90
2729;DHT22;1372;47.956;7.830;2022-09-01T15:51:34;25.30;99.90
2729;DHT22;1372;47.956;7.830;2022-09-01T15:54:06;25.40;99.90
2729;DHT22;1372;47.956;7.830;2022-09-01T15:56:38;25.40;99.90
2729;DHT22;1372;47.956;7.830;2022-09-01T15:59:08;25.30;99.90
2729;DHT22;1372;47.956;7.830;2022-09-01T16:01:40;25.20;99.90
2729;DHT22;1372;47.956;7.830;2022-09-01T16:04:13;25.10;99.90
2729;DHT22;1372;47.956;7.830;2022-09-01T16:06:46;25.00;99.90
2729;DHT22;1372;47.956;7.830;2022-09-01T16:09:19;25.00;99.90
2729;DHT22;1372;47.956;7.830;2022-09-01T16:11:49;25.00;99.90
2729;DHT22;1372;47.956;7.830;2022-09-01T16:14:18;25.00;99.90
2729;DHT22;1372;47.956;7.830;2022-09-01T16:16:54;24.90;99.90
2729;DHT22;1372;47.956;7.830;2022-09-01T16:19:35;24.90;99.90
2729;DHT22;1372;47.956;7.830;2022-09-01T16:22:28;24.80;99.90
2729;DHT22;1372;47.956;7.830;2022-09-01T16:25:07;24.70;99.90
2729;DHT22;1372;47.956;7.830;2022-09-01T16:27:43;24.70;99.90
2729;DHT22;1372;47.956;7.830;2022-09-01T16:30:14;24.70;99.90
2729;DHT22;1372;47.956;7.830;2022-09-01T16:32:48;24.60;99.90
2729;DHT22;1372;47.956;7.830;2022-09-01T16:35:17;24.50;99.90
2729;DHT22;1372;47.956;7.830;2022-09-01T16:37:53;24.50;99.90
2729;DHT22;1372;47.956;7.830;2022-09-01T16:40:32;24.50;99.90
2729;DHT22;1372;47.956;7.830;2022-09-01T16:43:09;24.40;99.90
2729;DHT22;1372;47.956;7.830;2022-09-01T16:45:54;24.30;99.90
2729;DHT22;1372;47.956;7.830;2022-09-01T16:48:33;24.20;99.90
2729;DHT22;1372;47.956;7.830;2022-09-01T16:51:12;24.20;99.90
2729;DHT22;1372;47.956;7.830;2022-09-01T16:54:13;24.10;99.90
2729;DHT22;1372;47.956;7.830;2022-09-01T16:56:53;23.90;99.90
2729;DHT22;1372;47.956;7.830;2022-09-01T16:59:51;23.80;99.90
2729;DHT22;1372;47.956;7.830;2022-09-01T17:02:41;23.60;99.90
2729;DHT22;1372;47.956;7.830;2022-09-01T17:05:21;23.50;99.90
2729;DHT22;1372;47.956;7.830;2022-09-01T17:08:01;23.30;99.90
2729;DHT22;1372;47.956;7.830;2022-09-01T17:10:40;23.10;99.90